Nearby METAR Reports

 

KHOB - Hobbs, New Mexico, USA
Distance from station: S 40mi, 65km
Updated: Thu, 17-Oct-2019 11:50am MDT
Clear
Clear
 Wind from S
Wind: S 9 mph , 15 km/h
Temperature: 72°F , 22°C
Dew Point: 45°F , 7°C
Humidity: 38%
Barometer: 30.03 inHg , 1016.9 hPa
Clouds: Clear
Visibility: 10 miles , 16 km
2019/10/17 17:50 KHOB 171750Z 17008KT 10SM SKC 22/07 A3003
KGNC - Seminole, Texas, USA
Distance from station: SE 55mi, 89km
Updated: Thu, 17-Oct-2019 11:55am MDT
Clear
Clear
 Wind from SSW
Wind: SSW 9 mph , 15 km/h
Temperature: 73°F , 23°C
Dew Point: 45°F , 7°C
Humidity: 36%
Barometer: 30.06 inHg , 1017.9 hPa
Clouds: Clear
Visibility: 10 miles , 16 km
2019/10/17 17:55 KGNC 171755Z AUTO 20008KT 10SM CLR 23/07 A3006 RMK AO2 T02290073 10230 20042
 
KROW - Roswell, New Mexico, USA
Distance from station: W 67mi, 108km
Updated: Thu, 17-Oct-2019 11:51am MDT
Clear
Clear
 Wind from S
Wind: S 7 mph , 11 km/h
Temperature: 70°F , 21°C
Dew Point: 37°F , 3°C
Humidity: 31%
Barometer: 30.00 inHg , 1015.9 hPa
Clouds: Clear
Visibility: 10 miles , 16 km
2019/10/17 17:51 KROW 171751Z 19006KT 10SM CLR 21/03 A3000 RMK AO2 SLP117 T02060028 10206 20056 58020
KATS - Artesia, New Mexico, USA
Distance from station: WSW 71mi, 114km
Updated: Thu, 17-Oct-2019 11:55am MDT
Clear
Clear
 Wind from SE
Wind: SE 12 mph , 19 km/h
Temperature: 70°F , 21°C
Dew Point: 45°F , 7°C
Humidity: 40%
Barometer: 30.01 inHg , 1016.3 hPa
Clouds: Clear
Visibility: 10 miles , 16 km
2019/10/17 17:55 KATS 171755Z AUTO 14010KT 10SM CLR 21/07 A3001 RMK AO2
 
KCVS - Cannon AFB,Clovis, New Mexico, USA
Distance from station: 0 78mi, 125km
Updated: Thu, 17-Oct-2019 11:58am MDT
Clear
Clear
 Wind from SW
Wind: SW 14 mph , 22 km/h
Temperature: 72°F , 22°C
Dew Point: 37°F , 3°C
Humidity: 29%
Barometer: 30.02 inHg , 1016.6 hPa
Clouds: Clear
Visibility: 10 miles , 16 km
2019/10/17 17:58 KCVS 171758Z AUTO 22012KT 10SM CLR 22/03 A3002 RMK AO2 SLP127 T02170029 10217 20076 57017 $
KE11 - Andrews, Texas, USA
Distance from station: SE 78mi, 126km
Updated: Thu, 17-Oct-2019 11:55am MDT
Clear
Clear
 Wind from S
Wind: S 8 mph , 13 km/h
Temperature: 75°F , 24°C
Dew Point: 46°F , 8°C
Humidity: 36%
Barometer: 30.03 inHg , 1016.9 hPa
Clouds: Clear
Visibility: 10 miles , 16 km
2019/10/17 17:55 KE11 171755Z AUTO 19007KT 10SM CLR 24/08 A3003 RMK AO2 T02420082 10242 20089
 
KCNM - Carlsbad, New Mexico, USA
Distance from station: SW 82mi, 132km
Updated: Thu, 17-Oct-2019 11:53am MDT
Clear
Clear
 Wind from SE
Wind: SE 7 mph , 11 km/h
Temperature: 72°F , 22°C
Dew Point: 45°F , 7°C
Humidity: 38%
Barometer: 29.99 inHg , 1015.6 hPa
Clouds: Clear
Visibility: 10 miles , 16 km
2019/10/17 17:53 KCNM 171753Z AUTO 13006KT 10SM CLR 22/07 A2999 RMK AO2 SLP119 T02170072 10217 20056 58019
KCVN - Clovis Muni, New Mexico, USA
Distance from station: N 83mi, 133km
Updated: Thu, 17-Oct-2019 11:56am MDT
Clear
Clear
 Wind from SW
Wind: SW 14 mph , 22 km/h
Temperature: 73°F , 23°C
Dew Point: 37°F , 3°C
Humidity: 27%
Barometer: 30.01 inHg , 1016.3 hPa
Clouds: Clear
Visibility: 10 miles , 16 km
2019/10/17 17:56 KCVN 171756Z AUTO 23012KT 10SM CLR 23/03 A3001 RMK AO2 SLP138 T02280028 10228 20044 58016
 
KLBB - Lubbock, Texas, USA
Distance from station: ENE 92mi, 149km
Updated: Thu, 17-Oct-2019 11:53am MDT
Few Clouds
Few Clouds
 Wind from SSW
Wind: SSW 13 mph , 20 km/h
Temperature: 73°F , 23°C
Dew Point: 37°F , 3°C
Humidity: 27%
Barometer: 30.00 inHg , 1015.9 hPa
Clouds: Few Clouds
Visibility: 10 miles , 16 km
Cloud details: Few Clouds 25000 ft
2019/10/17 17:53 KLBB 171753Z 21011KT 10SM FEW250 23/03 A3000 RMK AO2 SLP125 T02280033 10228 20061 56021
KINK - Wink, Texas, USA
Distance from station: S 101mi, 163km
Updated: Thu, 17-Oct-2019 11:53am MDT
Clear
Clear
 Wind from SSW
Wind: SSW 6 mph , 9 km/h
Temperature: 75°F , 24°C
Dew Point: 41°F , 5°C
Humidity: 29%
Barometer: 30.00 inHg , 1015.9 hPa
Clouds: Clear
Visibility: 10 miles , 16 km
2019/10/17 17:53 KINK 171753Z AUTO 21005KT 10SM CLR 24/05 A3000 RMK AO2 SLP129 T02390050 10239 20050 58017
 
KMAF - Midland, Texas, USA
Distance from station: SE 111mi, 179km
Updated: Thu, 17-Oct-2019 11:53am MDT
Clear
Clear
 Wind from SSW
Wind: SSW 8 mph , 13 km/h
Temperature: 73°F , 23°C
Dew Point: 45°F , 7°C
Humidity: 36%
Barometer: 30.02 inHg , 1016.6 hPa
Clouds: Clear
Visibility: 10 miles , 16 km
2019/10/17 17:53 KMAF 171753Z 21007KT 10SM CLR 23/07 A3002 RMK AO2 SLP133 T02330072 10239 20083 58015
KSRR - Sierra B/Ruidoso, New Mexico, USA
Distance from station: W 127mi, 204km
Updated: Thu, 17-Oct-2019 11:55am MDT
Clear
Clear
 Wind from SSW
Wind: SSW 9 mph , 15 km/h
Temperature: 66°F , 19°C
Dew Point: 16°F , -9°C
Humidity: 14%
Barometer: 30.14 inHg , 1020.7 hPa
Clouds: Clear
Visibility: 10 miles , 16 km
2019/10/17 17:55 KSRR 171755Z AUTO 21008KT 10SM CLR 19/M09 A3014 RMK AO2
 
KGDP - Guadalupe Pass, Texas, USA
Distance from station: SW 130mi, 209km
Updated: Thu, 17-Oct-2019 11:51am MDT
Clear
Clear
 Wind from WSW
Wind: WSW 21 mph , 33 km/h
Temperature: 63°F , 17°C
Dew Point: 43°F , 6°C
Humidity: 49%
Barometer: 30.11 inHg , 1019.6 hPa
Clouds: Clear
Visibility: 10 miles , 16 km
2019/10/17 17:51 KGDP 171751Z AUTO 24018KT 10SM CLR 17/06 A3011 RMK AO2 SLP149 T01720061 10178 20078 58008